Time;durP1;ratioP1;P1;durP2;ratioP2;P2;SDS_P1;SDS_P2;PMS_P1;PMS_P2;Temp;Humidity;BMP_temperature;BMP_pressure;BME280_temperature;BME280_humidity;BME280_pressure;Samples;Min_cycle;Max_cycle;Signal;HPM_P1;HPM_P2
2022/09/20 00:01:27;;;;;;;1.90;0.80;;;;;;;15.82;48.55;96852.63;5089484;28;20202;-80
2022/09/20 00:03:57;;;;;;;0.80;0.80;;;;;;;15.91;49.33;96870.25;5102164;28;20279;-79
2022/09/20 00:06:27;;;;;;;1.20;1.10;;;;;;;15.97;48.73;96876.84;5082592;28;20781;-81
2022/09/20 00:08:55;;;;;;;1.97;0.97;;;;;;;15.92;49.07;96869.31;5112271;28;20184;-82
2022/09/20 00:11:25;;;;;;;0.93;0.93;;;;;;;15.96;49.38;96865.56;5108161;28;20240;-80
2022/09/20 00:13:54;;;;;;;0.87;0.87;;;;;;;15.92;49.17;96868.47;5089679;28;20192;-82
2022/09/20 00:16:40;;;;;;;1.17;1.07;;;;;;;15.90;49.00;96871.19;5107923;28;20254;-78
2022/09/20 00:19:15;;;;;;;1.83;1.07;;;;;;;15.88;49.25;96865.25;5107883;28;20189;-81
2022/09/20 00:21:42;;;;;;;1.57;1.20;;;;;;;15.86;49.31;96869.75;5104326;28;20314;-84
2022/09/20 00:24:09;;;;;;;1.73;1.20;;;;;;;15.83;49.63;96863.88;5087989;28;20272;-76
2022/09/20 00:26:36;;;;;;;1.50;1.30;;;;;;;15.88;49.48;96867.88;5087113;28;20290;-80
2022/09/20 00:29:04;;;;;;;1.70;1.13;;;;;;;15.80;49.36;96862.34;5087315;28;20250;-82
2022/09/20 00:31:31;;;;;;;3.00;1.23;;;;;;;15.75;50.01;96855.75;5102898;28;20284;-80
2022/09/20 00:36:45;;;;;;;1.23;1.10;;;;;;;15.73;49.65;96842.81;5087603;28;20187;-78
2022/09/20 00:39:13;;;;;;;1.93;1.20;;;;;;;15.58;50.75;96833.41;5087103;28;20608;-75
2022/09/20 00:41:41;;;;;;;1.20;0.97;;;;;;;15.66;50.40;96846.75;5087114;28;20235;-76
2022/09/20 00:44:42;;;;;;;1.80;1.27;;;;;;;15.70;49.88;96848.25;5068828;28;20271;-74
2022/09/20 00:47:23;;;;;;;1.30;1.10;;;;;;;15.61;49.76;96840.19;5087091;28;20294;-80
2022/09/20 00:49:53;;;;;;;1.17;1.03;;;;;;;15.38;50.92;96842.59;5087483;28;20189;-81
2022/09/20 00:52:20;;;;;;;1.60;1.10;;;;;;;15.21;51.81;96824.63;5086773;28;20204;-82
2022/09/20 00:54:48;;;;;;;1.30;1.20;;;;;;;15.22;51.54;96838.50;5087353;28;20239;-79
2022/09/20 00:57:15;;;;;;;2.87;1.17;;;;;;;15.17;52.77;96843.19;5086917;28;20192;-83
2022/09/20 00:59:45;;;;;;;3.03;1.10;;;;;;;15.24;52.62;96828.78;5091038;28;20250;-78
2022/09/20 01:02:20;;;;;;;1.30;1.13;;;;;;;15.25;52.26;96820.03;5091225;28;20276;-83
2022/09/20 01:04:48;;;;;;;1.67;1.13;;;;;;;15.16;52.37;96815.44;5090915;28;20685;-85
2022/09/20 01:07:21;;;;;;;1.93;1.20;;;;;;;15.22;53.01;96826.31;5095317;28;20253;-82
2022/09/20 01:09:49;;;;;;;1.30;1.20;;;;;;;15.18;53.04;96826.59;5090844;28;20305;-80
2022/09/20 01:12:23;;;;;;;2.00;1.10;;;;;;;15.23;53.09;96819.28;5090877;28;20180;-79
2022/09/20 01:14:51;;;;;;;1.40;1.10;;;;;;;15.19;52.78;96807.38;5072654;28;20185;-77
2022/09/20 01:17:21;;;;;;;1.93;0.93;;;;;;;15.22;52.51;96821.06;5090704;28;20280;-83
2022/09/20 01:19:57;;;;;;;2.07;1.10;;;;;;;15.21;51.87;96808.13;5090969;28;20333;-76
2022/09/20 01:22:26;;;;;;;0.70;0.70;;;;;;;15.21;51.97;96818.56;5090813;28;20200;-79
2022/09/20 01:25:02;;;;;;;0.80;0.80;;;;;;;15.22;51.65;96830.69;5090957;28;20727;-78
2022/09/20 01:27:47;;;;;;;0.80;0.80;;;;;;;15.08;51.46;96825.56;5090589;28;20220;-76
2022/09/20 01:30:27;;;;;;;1.80;0.63;;;;;;;15.12;52.02;96829.63;5090549;28;20193;-76
2022/09/20 01:33:25;;;;;;;1.77;0.73;;;;;;;15.05;52.28;96836.19;5090811;28;20279;-80
2022/09/20 01:35:53;;;;;;;0.90;0.90;;;;;;;14.94;53.25;96823.03;5090533;28;20271;-82
2022/09/20 01:38:35;;;;;;;0.60;0.60;;;;;;;14.86;52.97;96820.09;5090693;28;20187;-83
2022/09/20 01:41:15;;;;;;;0.70;0.70;;;;;;;14.88;53.51;96829.47;5098081;28;20604;-76
2022/09/20 01:44:11;;;;;;;0.73;0.70;;;;;;;14.76;54.06;96826.81;5110441;28;20304;-78
2022/09/20 01:46:41;;;;;;;1.53;0.80;;;;;;;14.56;55.29;96825.53;5092355;28;20223;-75
2022/09/20 01:49:11;;;;;;;1.07;0.70;;;;;;;14.49;55.59;96822.50;5110637;28;20192;-75
2022/09/20 01:52:05;;;;;;;0.77;0.73;;;;;;;14.35;55.64;96826.91;5110732;28;20244;-83
2022/09/20 01:55:01;;;;;;;1.07;0.97;;;;;;;14.30;55.63;96832.41;5110810;28;20218;-82
2022/09/20 01:57:55;;;;;;;1.00;0.90;;;;;;;14.28;56.09;96826.47;5110295;28;20191;-81
2022/09/20 02:00:30;;;;;;;0.90;0.90;;;;;;;14.25;55.64;96820.59;5054772;28;20219;-84
2022/09/20 02:03:11;;;;;;;0.70;0.70;;;;;;;14.30;55.59;96831.59;5111049;28;20219;-81
2022/09/20 02:05:40;;;;;;;1.20;0.80;;;;;;;14.26;55.71;96822.28;5120931;28;20191;-82
2022/09/20 02:08:25;;;;;;;0.70;0.70;;;;;;;14.29;55.34;96825.53;5094120;28;20208;-82
2022/09/20 02:11:15;;;;;;;1.07;0.80;;;;;;;14.36;55.19;96842.44;5111252;28;20216;-84
2022/09/20 02:14:07;;;;;;;0.70;0.70;;;;;;;14.37;55.22;96838.06;5111389;28;20180;-85
2022/09/20 02:16:56;;;;;;;0.90;0.90;;;;;;;14.11;55.92;96839.72;5110662;28;20215;-85
2022/09/20 02:19:40;;;;;;;0.97;0.87;;;;;;;13.92;56.81;96823.56;5110306;28;20195;-84
2022/09/20 02:22:30;;;;;;;0.80;0.80;;;;;;;13.95;56.71;96832.94;5110750;28;20624;-84
2022/09/20 02:25:14;;;;;;;0.73;0.70;;;;;;;13.96;56.30;96832.84;5110505;28;20199;-84
2022/09/20 02:28:16;;;;;;;0.60;0.60;;;;;;;13.90;56.83;96835.84;5110069;28;20217;-83
2022/09/20 02:31:10;;;;;;;0.80;0.80;;;;;;;13.92;56.28;96828.75;5109796;28;20270;-83
2022/09/20 02:33:59;;;;;;;1.00;0.90;;;;;;;13.84;55.93;96829.25;5110203;28;20701;-82
2022/09/20 02:36:35;;;;;;;0.70;0.70;;;;;;;13.85;56.35;96835.25;5074500;28;20252;-85
2022/09/20 02:39:22;;;;;;;0.80;0.80;;;;;;;13.71;56.44;96836.13;5109815;28;20190;-84
2022/09/20 02:42:22;;;;;;;1.10;0.90;;;;;;;13.74;56.24;96841.16;5109879;28;20682;-83
2022/09/20 02:44:58;;;;;;;1.10;1.00;;;;;;;13.70;56.41;96834.44;5109635;28;20187;-83
2022/09/20 02:47:35;;;;;;;1.30;1.20;;;;;;;13.62;56.12;96836.69;5109871;28;20310;-82
2022/09/20 02:50:23;;;;;;;1.13;1.03;;;;;;;13.66;56.35;96845.16;5109868;28;20186;-82
2022/09/20 02:52:55;;;;;;;1.40;1.30;;;;;;;13.59;56.39;96852.50;5109246;28;20194;-80
2022/09/20 02:55:25;;;;;;;1.27;1.10;;;;;;;13.60;56.15;96850.75;5109983;28;20190;-82
2022/09/20 02:58:03;;;;;;;1.20;1.10;;;;;;;13.59;56.42;96857.69;5109116;28;20192;-81
2022/09/20 03:00:45;;;;;;;2.30;1.37;;;;;;;13.62;55.35;96856.69;5090932;28;20226;-83
2022/09/20 03:03:47;;;;;;;1.20;1.10;;;;;;;13.64;54.77;96857.44;5110092;28;20220;-78
2022/09/20 03:06:36;;;;;;;2.20;1.30;;;;;;;13.54;55.13;96854.53;5109415;28;20194;-83
2022/09/20 03:09:17;;;;;;;1.30;1.20;;;;;;;13.44;54.67;96853.41;5109491;28;20212;-84
2022/09/20 03:12:11;;;;;;;1.40;1.30;;;;;;;13.53;54.53;96855.47;5108877;28;20199;-83
2022/09/20 03:14:54;;;;;;;1.10;1.10;;;;;;;13.54;53.76;96857.13;5108760;28;20183;-83
2022/09/20 03:17:32;;;;;;;1.80;1.20;;;;;;;13.51;53.19;96851.28;5109216;28;20614;-81
2022/09/20 03:20:28;;;;;;;1.10;1.10;;;;;;;13.48;52.51;96856.66;5108966;28;20186;-82
2022/09/20 03:23:17;;;;;;;2.37;1.40;;;;;;;13.52;52.10;96865.94;5018307;28;20226;-82
2022/09/20 03:25:56;;;;;;;1.50;1.40;;;;;;;13.47;51.64;96866.25;5093928;28;20274;-80
2022/09/20 03:28:33;;;;;;;1.33;1.23;;;;;;;13.36;51.73;96852.19;5091167;28;20396;-81
2022/09/20 03:31:28;;;;;;;2.13;1.33;;;;;;;13.38;51.59;96872.00;5108799;28;20909;-80
2022/09/20 03:33:57;;;;;;;2.00;1.37;;;;;;;13.29;52.15;96875.13;5110069;28;20195;-81
2022/09/20 03:36:43;;;;;;;2.20;1.20;;;;;;;13.32;52.13;96868.91;5110853;28;20860;-80
2022/09/20 03:39:40;;;;;;;1.30;1.20;;;;;;;13.31;51.44;96877.66;5109141;28;20221;-79
2022/09/20 03:42:19;;;;;;;1.63;1.10;;;;;;;13.34;51.69;96882.66;5108062;28;20230;-81
2022/09/20 03:45:05;;;;;;;1.37;1.27;;;;;;;13.22;51.97;96876.44;5109346;28;20645;-80
2022/09/20 03:47:48;;;;;;;1.40;1.30;;;;;;;13.26;51.71;96877.91;5111970;28;20221;-81
2022/09/20 03:50:30;;;;;;;1.80;1.20;;;;;;;13.28;50.47;96883.03;5107839;28;20196;-81
2022/09/20 03:53:15;;;;;;;1.90;1.20;;;;;;;13.26;51.27;96887.47;5108184;28;20224;-79
2022/09/20 03:55:58;;;;;;;1.50;1.33;;;;;;;13.24;51.24;96891.94;5090467;28;20202;-79
2022/09/20 03:58:51;;;;;;;2.17;1.10;;;;;;;13.13;51.92;96889.13;5108132;28;20215;-80
2022/09/20 04:01:32;;;;;;;1.40;1.17;;;;;;;13.17;52.28;96901.03;5108285;28;20240;-81
2022/09/20 04:04:30;;;;;;;2.93;1.13;;;;;;;13.17;51.63;96901.84;5110959;28;20599;-81
2022/09/20 04:07:09;;;;;;;1.30;1.20;;;;;;;13.13;51.97;96910.75;5108345;28;20230;-81
2022/09/20 04:09:50;;;;;;;1.60;1.30;;;;;;;13.02;52.71;96905.31;5090179;28;20211;-82
2022/09/20 04:12:38;;;;;;;1.60;1.37;;;;;;;12.98;52.68;96909.84;5088194;28;20246;-82
2022/09/20 04:15:11;;;;;;;1.47;1.37;;;;;;;12.81;53.07;96875.34;5088441;28;20193;-81
2022/09/20 04:18:00;;;;;;;1.60;1.50;;;;;;;12.91;51.93;96916.31;5094073;28;20675;-82
2022/09/20 04:20:33;;;;;;;1.40;1.30;;;;;;;12.95;50.73;96917.81;5087427;28;20249;-82
2022/09/20 04:23:13;;;;;;;1.40;1.30;;;;;;;12.95;51.24;96901.38;5069017;28;20923;-80
2022/09/20 04:25:46;;;;;;;1.40;1.30;;;;;;;12.95;50.23;96902.22;5087479;28;20530;-83
2022/09/20 04:28:20;;;;;;;1.30;1.20;;;;;;;13.04;50.92;96922.50;5069048;28;20221;-79
2022/09/20 04:30:52;;;;;;;1.10;1.00;;;;;;;13.10;49.89;96926.53;5088968;28;20192;-85
2022/09/20 04:33:28;;;;;;;1.30;1.20;;;;;;;13.06;49.77;96902.47;5087708;28;20268;-80
2022/09/20 04:38:51;;;;;;;1.00;0.90;;;;;;;13.31;48.97;96901.91;5087096;28;20191;-83
2022/09/20 04:41:37;;;;;;;1.87;1.20;;;;;;;13.47;48.45;96925.25;5087121;28;20246;-81
2022/09/20 04:44:15;;;;;;;3.10;2.40;;;;;;;13.53;47.01;96919.66;5087620;28;20209;-82
2022/09/20 04:47:08;;;;;;;1.53;0.93;;;;;;;13.71;45.73;96932.41;5087230;28;20181;-83
2022/09/20 04:49:54;;;;;;;2.80;1.30;;;;;;;13.79;46.21;96911.13;5068853;28;20265;-83
2022/09/20 04:52:40;;;;;;;1.20;1.10;;;;;;;13.81;44.99;96925.72;5103048;28;20191;-83
2022/09/20 04:55:11;;;;;;;2.40;1.10;;;;;;;14.08;45.53;96927.56;5086412;28;20614;-83
2022/09/20 04:58:07;;;;;;;1.47;1.37;;;;;;;14.09;45.39;96924.91;5087547;28;20192;-83
2022/09/20 05:00:56;;;;;;;0.90;0.90;;;;;;;14.12;44.05;96927.31;5050583;28;20220;-81
2022/09/20 05:04:04;;;;;;;1.10;0.97;;;;;;;14.11;44.58;96933.47;5091061;28;20222;-83
2022/09/20 05:07:06;;;;;;;1.50;0.80;;;;;;;14.07;44.41;96939.78;5063815;28;20208;-80
2022/09/20 05:10:24;;;;;;;0.93;0.93;;;;;;;14.17;44.81;96925.25;5069599;28;20195;-83
2022/09/20 05:12:57;;;;;;;0.97;0.97;;;;;;;14.14;45.63;96938.47;5004918;28;20708;-78
2022/09/20 05:15:49;;;;;;;1.83;1.30;;;;;;;14.20;45.72;96935.47;5004555;28;20242;-82
2022/09/20 05:18:37;;;;;;;0.87;0.87;;;;;;;14.16;45.33;96936.59;5061709;28;20288;-83
2022/09/20 05:21:11;;;;;;;1.40;1.10;;;;;;;14.18;45.59;96928.72;5086437;28;20188;-82
2022/09/20 05:23:57;;;;;;;1.37;1.00;;;;;;;14.25;45.82;96941.25;5087585;28;20183;-79
2022/09/20 05:26:27;;;;;;;1.60;1.30;;;;;;;14.26;46.07;96929.88;5090670;28;20185;-83
2022/09/20 05:29:11;;;;;;;1.63;1.10;;;;;;;14.41;45.51;96936.78;5086885;28;20260;-83
2022/09/20 05:32:12;;;;;;;1.30;1.20;;;;;;;14.46;45.87;96939.97;5069100;28;20692;-81
2022/09/20 05:34:51;;;;;;;1.97;1.30;;;;;;;14.38;45.96;96946.56;5069374;28;20715;-77
2022/09/20 05:37:42;;;;;;;1.30;1.20;;;;;;;14.53;45.56;96950.81;5086638;28;20195;-83
2022/09/20 05:40:43;;;;;;;1.93;1.30;;;;;;;14.65;45.74;96942.25;5087035;28;20593;-82
2022/09/20 05:43:29;;;;;;;1.87;1.43;;;;;;;14.77;44.97;96953.66;5085229;28;20284;-82
2022/09/20 05:46:25;;;;;;;2.90;1.57;;;;;;;14.78;45.16;96942.28;5089208;28;20649;-84
2022/09/20 05:49:06;;;;;;;2.47;1.57;;;;;;;14.77;44.60;96944.06;5090604;28;20328;-82
2022/09/20 05:51:45;;;;;;;1.87;1.30;;;;;;;14.95;43.87;96936.81;5090083;28;20709;-83
2022/09/20 05:54:24;;;;;;;1.20;1.10;;;;;;;14.89;44.22;96934.59;5090219;28;20215;-82
2022/09/20 05:56:57;;;;;;;1.77;1.40;;;;;;;14.61;45.04;96935.56;5090117;28;20270;-83
2022/09/20 05:59:48;;;;;;;2.30;1.43;;;;;;;14.47;45.44;96935.56;5092152;28;20188;-81
2022/09/20 06:02:50;;;;;;;2.33;1.30;;;;;;;14.26;45.66;96937.69;5072534;28;20242;-83
2022/09/20 06:05:56;;;;;;;1.57;1.47;;;;;;;14.09;46.18;96922.28;5090373;28;20302;-78
2022/09/20 06:08:37;;;;;;;1.67;1.30;;;;;;;13.99;46.36;96913.38;5068426;28;20238;-84
2022/09/20 06:11:43;;;;;;;1.20;1.10;;;;;;;13.98;46.79;96931.69;5090237;28;20187;-82
2022/09/20 06:14:16;;;;;;;1.40;1.30;;;;;;;14.05;46.17;96923.41;5071557;28;20226;-81
2022/09/20 06:16:52;;;;;;;1.30;1.20;;;;;;;14.16;45.94;96948.78;5090021;28;20207;-83
2022/09/20 06:19:39;;;;;;;2.83;1.27;;;;;;;14.38;45.82;96941.38;5090293;28;20275;-83
2022/09/20 06:22:19;;;;;;;1.23;1.13;;;;;;;14.37;46.24;96943.13;5097467;28;20262;-86
2022/09/20 06:25:24;;;;;;;1.20;1.10;;;;;;;14.57;45.11;96942.72;5095665;28;20258;-83
2022/09/20 06:29:02;;;;;;;1.37;1.27;;;;;;;14.63;44.82;96955.34;5078104;28;20236;-78
2022/09/20 06:31:44;;;;;;;1.13;1.07;;;;;;;14.98;44.36;96947.88;5035020;28;20554;-81
2022/09/20 06:35:01;;;;;;;1.23;1.13;;;;;;;15.27;43.62;96932.97;5037862;28;20224;-78
2022/09/20 06:42:32;;;;;;;4.10;1.27;;;;;;;15.76;42.25;96939.22;5053979;28;20245;-82
2022/09/20 06:44:58;;;;;;;1.27;1.17;;;;;;;15.88;42.62;96947.97;5046470;28;20237;-81
2022/09/20 06:47:27;;;;;;;0.90;0.90;;;;;;;15.76;42.45;96931.38;5047367;28;20264;-82
2022/09/20 06:49:55;;;;;;;1.30;1.20;;;;;;;15.76;42.67;96941.81;5052416;28;20293;-84
2022/09/20 06:52:25;;;;;;;2.70;1.10;;;;;;;15.63;42.92;96946.19;5039386;28;20225;-84
2022/09/20 06:54:55;;;;;;;2.00;1.10;;;;;;;15.31;43.64;96942.25;5051281;28;20206;-83
2022/09/20 06:57:35;;;;;;;1.23;1.03;;;;;;;15.26;44.29;96944.31;5050532;28;20215;-83
2022/09/20 07:00:05;;;;;;;1.23;1.00;;;;;;;15.28;44.06;96952.88;5050374;28;20685;-83
2022/09/20 07:02:33;;;;;;;2.10;1.20;;;;;;;15.33;43.98;96963.88;5055994;28;20269;-82
2022/09/20 07:05:00;;;;;;;0.90;0.90;;;;;;;15.32;43.55;96959.56;5103300;28;20181;-83
2022/09/20 07:07:28;;;;;;;0.90;0.90;;;;;;;15.32;42.96;96975.22;5069343;28;20266;-81
2022/09/20 07:09:57;;;;;;;1.10;0.97;;;;;;;15.31;42.92;96970.97;5100669;28;20634;-81
2022/09/20 07:12:24;;;;;;;1.10;1.03;;;;;;;15.36;42.97;96974.09;5070180;28;20194;-84
2022/09/20 07:14:51;;;;;;;0.87;0.87;;;;;;;15.25;42.81;96981.81;5069600;28;20501;-89
2022/09/20 07:17:18;;;;;;;1.87;1.07;;;;;;;15.14;43.44;96985.09;5067416;28;20254;-83
2022/09/20 07:19:45;;;;;;;1.23;1.10;;;;;;;15.17;43.47;96994.47;5067706;28;20586;-81
2022/09/20 07:22:13;;;;;;;2.10;0.90;;;;;;;15.30;43.38;96984.94;5067004;28;20216;-84
2022/09/20 07:24:41;;;;;;;0.90;0.90;;;;;;;15.41;43.16;96966.81;5067153;28;20283;-84
2022/09/20 07:27:10;;;;;;;1.10;1.00;;;;;;;15.78;42.23;96992.16;5068569;28;20223;-83
2022/09/20 07:29:37;;;;;;;0.70;0.70;;;;;;;15.74;42.04;96972.44;5068188;28;20669;-84
2022/09/20 07:32:05;;;;;;;0.80;0.80;;;;;;;15.63;42.84;96992.34;5067814;28;20183;-82
2022/09/20 07:34:32;;;;;;;0.80;0.80;;;;;;;15.64;42.48;96994.84;5067888;28;20189;-82
2022/09/20 07:37:01;;;;;;;2.20;0.80;;;;;;;15.48;42.02;96965.47;5065909;28;20318;-81
2022/09/20 07:39:28;;;;;;;1.37;1.03;;;;;;;15.98;42.37;96989.03;5066016;28;20251;-82
2022/09/20 07:41:55;;;;;;;1.00;0.90;;;;;;;16.28;41.45;96986.94;5049750;28;20716;-83
2022/09/20 07:44:23;;;;;;;0.70;0.70;;;;;;;16.16;41.90;96993.00;5049300;28;20191;-82
2022/09/20 07:46:58;;;;;;;0.87;0.77;;;;;;;16.16;41.45;96995.63;5069033;28;20193;-81
2022/09/20 07:49:29;;;;;;;1.17;0.70;;;;;;;16.20;41.07;97004.91;5067597;28;20726;-84
2022/09/20 07:51:56;;;;;;;1.03;0.83;;;;;;;16.22;40.81;97000.41;5067559;28;20189;-84
2022/09/20 07:54:26;;;;;;;1.50;0.67;;;;;;;16.29;40.84;96999.06;5067159;28;20288;-82
2022/09/20 07:56:53;;;;;;;0.90;0.80;;;;;;;16.33;41.87;97004.06;5070431;28;20276;-83
2022/09/20 07:59:20;;;;;;;0.97;0.70;;;;;;;16.04;42.19;97013.91;5067845;28;20189;-81
2022/09/20 08:01:48;;;;;;;1.10;0.80;;;;;;;15.93;42.42;96996.34;5067060;28;20375;-83
2022/09/20 08:04:15;;;;;;;0.70;0.70;;;;;;;15.97;42.21;96989.97;5067943;28;20540;-83
2022/09/20 08:06:45;;;;;;;1.23;0.70;;;;;;;16.27;41.99;96990.50;5066002;28;20185;-82
2022/09/20 08:09:13;;;;;;;2.00;0.80;;;;;;;16.44;41.43;96985.88;5067061;28;20673;-83
2022/09/20 08:11:42;;;;;;;0.83;0.83;;;;;;;16.26;41.04;96987.97;5065710;28;20619;-81
2022/09/20 08:14:14;;;;;;;1.10;1.00;;;;;;;16.18;41.50;96985.91;5065592;28;20224;-81
2022/09/20 08:16:45;;;;;;;1.53;0.70;;;;;;;16.40;41.26;97002.72;5067969;28;20213;-83
2022/09/20 08:19:19;;;;;;;1.13;0.70;;;;;;;16.28;41.71;96986.94;5066754;28;20220;-83
2022/09/20 08:21:47;;;;;;;2.13;0.70;;;;;;;16.35;41.85;96986.50;5066988;28;20181;-84
2022/09/20 08:24:15;;;;;;;1.43;0.60;;;;;;;16.43;41.52;97016.41;5065837;28;20288;-84
2022/09/20 08:26:42;;;;;;;0.73;0.60;;;;;;;16.45;41.98;97006.66;5066842;28;20225;-83
2022/09/20 08:29:10;;;;;;;1.20;0.70;;;;;;;16.36;41.61;96980.34;5068993;28;20249;-79
2022/09/20 08:31:41;;;;;;;1.80;0.50;;;;;;;16.28;42.42;96986.94;5099281;28;20192;-80
2022/09/20 08:34:26;;;;;;;1.27;1.00;;;;;;;16.45;42.32;96977.06;5067442;28;20197;-82
2022/09/20 08:36:55;;;;;;;5.40;0.90;;;;;;;16.59;42.04;96985.66;5070190;28;20183;-78
2022/09/20 08:39:25;;;;;;;0.87;0.67;;;;;;;16.65;41.81;96981.78;5065190;28;20193;-82
2022/09/20 08:42:25;;;;;;;0.70;0.70;;;;;;;16.40;41.88;96979.19;5077244;28;20677;-81
2022/09/20 08:45:04;;;;;;;1.07;0.70;;;;;;;16.51;42.12;96992.34;5086629;28;20181;-82
2022/09/20 08:47:41;;;;;;;0.70;0.60;;;;;;;16.77;41.64;96970.47;5087942;28;20186;-83
2022/09/20 08:50:14;;;;;;;0.60;0.60;;;;;;;17.04;41.81;96985.00;5092942;28;20215;-83
2022/09/20 08:52:54;;;;;;;0.60;0.60;;;;;;;16.96;41.20;96983.91;5077572;28;20205;-80
2022/09/20 08:55:30;;;;;;;0.63;0.63;;;;;;;16.92;41.40;96987.66;5092545;28;20186;-83
2022/09/20 08:58:03;;;;;;;0.80;0.50;;;;;;;16.91;40.64;96986.84;5086865;28;20176;-83
2022/09/20 09:00:36;;;;;;;2.37;0.90;;;;;;;17.10;41.00;96970.66;5086931;28;20640;-79
2022/09/20 09:03:09;;;;;;;2.07;0.50;;;;;;;16.85;41.22;96961.13;5068979;28;20184;-84
2022/09/20 09:05:42;;;;;;;0.50;0.50;;;;;;;16.79;40.77;96973.78;5086876;28;20194;-83
2022/09/20 09:08:17;;;;;;;0.50;0.50;;;;;;;16.95;41.44;96964.75;5086406;28;20228;-82
2022/09/20 09:10:51;;;;;;;2.07;1.20;;;;;;;16.98;41.91;96961.06;5086773;28;20540;-83
2022/09/20 09:13:30;;;;;;;1.10;0.70;;;;;;;17.02;41.52;96952.88;5086607;28;20219;-81
2022/09/20 09:16:01;;;;;;;0.97;0.70;;;;;;;17.29;41.06;96959.66;5087003;28;20249;-81
2022/09/20 09:18:35;;;;;;;0.70;0.60;;;;;;;17.15;40.57;96960.66;5053085;28;20575;-80
2022/09/20 09:21:05;;;;;;;0.97;0.70;;;;;;;16.91;41.23;96944.97;5091369;28;20228;-84
2022/09/20 09:23:46;;;;;;;1.50;0.70;;;;;;;17.12;41.13;96947.81;5093138;28;20253;-82
2022/09/20 09:26:17;;;;;;;0.90;0.63;;;;;;;17.05;41.36;96957.03;5091323;28;20196;-82
2022/09/20 09:29:06;;;;;;;0.43;0.43;;;;;;;16.99;40.58;96947.03;5107108;28;20309;-84
2022/09/20 09:31:34;;;;;;;0.60;0.60;;;;;;;17.12;41.21;96960.91;5075889;28;20185;-84
2022/09/20 09:34:04;;;;;;;0.53;0.53;;;;;;;17.23;41.00;96960.94;5079981;28;20676;-84
2022/09/20 09:36:43;;;;;;;2.53;0.70;;;;;;;17.04;41.30;96960.63;5091529;28;20192;-82
2022/09/20 09:39:26;;;;;;;1.33;0.50;;;;;;;17.20;41.02;96960.31;5094548;28;20216;-83
2022/09/20 09:41:54;;;;;;;0.97;0.80;;;;;;;17.39;40.56;96956.25;5090535;28;20721;-83
2022/09/20 09:44:29;;;;;;;0.60;0.60;;;;;;;17.70;40.24;96958.25;5090784;28;20636;-84
2022/09/20 09:46:58;;;;;;;0.70;0.70;;;;;;;17.88;40.29;96964.75;5090218;28;20668;-80
2022/09/20 09:49:29;;;;;;;0.63;0.50;;;;;;;17.56;40.12;96953.22;5090854;28;20271;-82
2022/09/20 09:52:23;;;;;;;0.60;0.60;;;;;;;17.45;39.72;96952.34;5072568;28;20194;-84
2022/09/20 09:54:53;;;;;;;0.80;0.60;;;;;;;17.20;40.96;96966.41;5109845;28;20197;-79
2022/09/20 09:57:27;;;;;;;0.70;0.70;;;;;;;17.28;41.27;96950.13;5091702;28;20201;-79
2022/09/20 10:00:03;;;;;;;2.17;0.77;;;;;;;16.91;41.68;96950.22;5071809;28;20203;-82
2022/09/20 10:02:59;;;;;;;0.70;0.70;;;;;;;17.11;41.20;96964.44;5090519;28;20256;-79
2022/09/20 10:05:47;;;;;;;1.20;0.67;;;;;;;17.25;40.28;96942.53;5093726;28;20185;-78
2022/09/20 10:08:36;;;;;;;0.50;0.50;;;;;;;17.34;40.46;96962.75;5090568;28;20243;-83
2022/09/20 10:11:18;;;;;;;3.30;0.70;;;;;;;17.34;40.56;96944.44;5090005;28;20205;-83
2022/09/20 10:14:20;;;;;;;1.03;0.50;;;;;;;17.38;40.15;96917.09;5090380;28;20189;-83
2022/09/20 10:17:01;;;;;;;0.50;0.50;;;;;;;17.49;40.47;96936.31;5092721;28;20200;-82
2022/09/20 10:19:40;;;;;;;4.73;0.70;;;;;;;17.85;39.87;96940.56;5072520;28;20249;-84
2022/09/20 10:22:23;;;;;;;0.70;0.70;;;;;;;17.69;39.31;96933.03;5090263;28;20195;-83
2022/09/20 10:25:34;;;;;;;0.50;0.50;;;;;;;17.53;39.91;96929.91;5096987;28;20217;-84
2022/09/20 10:28:18;;;;;;;1.10;0.67;;;;;;;17.38;40.67;96935.41;5062315;28;20199;-80
2022/09/20 10:31:19;;;;;;;0.80;0.60;;;;;;;17.38;40.67;96959.81;5088910;28;20246;-84
2022/09/20 10:34:01;;;;;;;1.60;0.70;;;;;;;17.45;39.70;96940.09;5088945;28;20337;-77
2022/09/20 10:36:42;;;;;;;0.50;0.50;;;;;;;17.30;40.62;96941.22;5089691;28;20648;-77
2022/09/20 10:39:28;;;;;;;0.53;0.50;;;;;;;17.54;40.06;96918.47;5089964;28;20178;-82
2022/09/20 10:45:57;;;;;;;2.47;0.83;;;;;;;17.58;39.67;96933.00;5090100;28;20283;-83
2022/09/20 10:48:54;;;;;;;0.60;0.60;;;;;;;17.89;39.09;96913.16;5090294;28;20222;-81
2022/09/20 10:51:51;;;;;;;1.03;0.60;;;;;;;17.57;39.85;96920.88;5090519;28;20224;-82
2022/09/20 10:54:31;;;;;;;0.50;0.50;;;;;;;17.55;39.90;96911.47;5093699;28;20225;-84
2022/09/20 10:57:11;;;;;;;0.50;0.50;;;;;;;17.60;39.69;96899.66;5091231;28;20583;-85
2022/09/20 10:59:50;;;;;;;1.50;0.60;;;;;;;17.76;40.42;96928.97;5089357;28;20499;-83
2022/09/20 11:02:34;;;;;;;0.43;0.43;;;;;;;17.81;40.25;96911.16;5089399;28;20635;-84
2022/09/20 11:05:24;;;;;;;0.43;0.43;;;;;;;17.85;40.27;96920.44;5090191;28;20189;-84
2022/09/20 11:08:17;;;;;;;0.87;0.60;;;;;;;17.55;40.32;96904.44;5090308;28;20302;-82
2022/09/20 11:10:50;;;;;;;3.77;1.13;;;;;;;17.80;39.70;96919.94;5105785;28;20520;-82
2022/09/20 11:13:33;;;;;;;0.60;0.60;;;;;;;18.15;37.73;96919.03;5092300;28;20288;-82
2022/09/20 11:16:21;;;;;;;0.50;0.50;;;;;;;18.08;36.85;96907.34;5100490;28;20191;-84
2022/09/20 11:19:41;;;;;;;0.70;0.60;;;;;;;18.24;38.69;96913.06;5098979;28;20195;-83
2022/09/20 11:22:17;;;;;;;0.50;0.50;;;;;;;18.41;38.03;96902.91;5025399;28;20191;-81
2022/09/20 11:24:54;;;;;;;3.47;0.60;;;;;;;18.57;37.87;96920.91;5091001;28;20201;-83
2022/09/20 11:27:30;;;;;;;0.97;0.60;;;;;;;18.46;38.26;96899.97;5087328;28;20197;-84
2022/09/20 11:30:07;;;;;;;0.57;0.57;;;;;;;18.65;37.75;96903.63;5089262;28;20226;-83
2022/09/20 11:33:00;;;;;;;0.77;0.60;;;;;;;18.39;38.39;96911.84;5104952;28;20190;-81
2022/09/20 11:35:34;;;;;;;1.07;0.60;;;;;;;18.00;38.63;96925.44;5089159;28;20197;-83
2022/09/20 11:38:24;;;;;;;0.83;0.60;;;;;;;17.80;38.82;96919.94;5089945;28;20251;-83
2022/09/20 11:40:58;;;;;;;0.50;0.50;;;;;;;18.03;38.34;96912.97;5088505;28;20186;-82
2022/09/20 11:43:29;;;;;;;1.90;0.80;;;;;;;18.13;37.93;96910.44;5103449;28;20572;-83
2022/09/20 11:46:03;;;;;;;0.67;0.60;;;;;;;17.98;38.60;96911.63;5104809;28;20197;-80
2022/09/20 11:48:39;;;;;;;2.97;0.90;;;;;;;18.16;38.03;96902.31;5090391;28;20209;-80
2022/09/20 11:51:25;;;;;;;1.37;1.00;;;;;;;18.21;38.51;96929.03;5094468;28;20201;-82
2022/09/20 11:54:27;;;;;;;1.60;0.63;;;;;;;18.21;38.25;96915.94;5093341;28;20658;-83
2022/09/20 11:56:56;;;;;;;2.17;0.70;;;;;;;18.28;37.67;96896.16;5074625;28;20212;-84
2022/09/20 11:59:33;;;;;;;1.87;0.80;;;;;;;18.10;38.08;96908.06;5094791;28;20252;-79
2022/09/20 12:02:03;;;;;;;1.23;0.70;;;;;;;18.17;38.06;96904.00;5096266;28;20278;-81
2022/09/20 12:04:34;;;;;;;0.83;0.60;;;;;;;18.12;37.84;96893.88;5097912;28;20676;-80
2022/09/20 12:07:13;;;;;;;0.60;0.50;;;;;;;18.12;37.61;96898.28;5104610;28;20225;-81
2022/09/20 12:10:19;;;;;;;2.63;0.70;;;;;;;18.35;37.38;96899.94;5105062;28;20229;-79
2022/09/20 12:12:53;;;;;;;1.53;0.67;;;;;;;18.50;36.88;96901.41;5102025;28;20659;-79
2022/09/20 12:15:20;;;;;;;1.33;0.70;;;;;;;18.47;37.22;96888.50;5096734;28;20218;-80
2022/09/20 12:17:47;;;;;;;1.43;0.80;;;;;;;18.67;37.89;96874.63;5095967;28;20191;-79
2022/09/20 12:20:37;;;;;;;0.50;0.40;;;;;;;18.42;37.37;96899.31;5111657;28;20194;-78
2022/09/20 12:23:39;;;;;;;1.27;0.50;;;;;;;18.29;36.69;96890.78;5096520;28;20187;-83
2022/09/20 12:26:24;;;;;;;4.73;0.77;;;;;;;18.35;37.65;96894.69;5091004;28;20194;-83
2022/09/20 12:29:30;;;;;;;0.50;0.50;;;;;;;18.19;37.42;96894.25;5072085;28;20745;-85
2022/09/20 12:32:55;;;;;;;0.50;0.50;;;;;;;18.31;37.22;96890.66;5041794;28;20276;-81
2022/09/20 12:35:39;;;;;;;3.33;0.70;;;;;;;18.35;37.16;96890.28;5091031;28;20199;-82
2022/09/20 12:38:45;;;;;;;0.90;0.60;;;;;;;18.24;37.14;96882.44;5099615;28;20193;-77
2022/09/20 12:41:18;;;;;;;2.40;0.67;;;;;;;18.32;36.96;96885.28;5097014;28;20235;-79
2022/09/20 12:44:02;;;;;;;1.10;0.70;;;;;;;18.12;37.58;96888.63;5101098;28;20236;-82
2022/09/20 12:47:03;;;;;;;3.40;0.60;;;;;;;18.34;37.30;96883.38;5072456;28;20234;-81
2022/09/20 12:52:49;;;;;;;0.60;0.60;;;;;;;18.31;37.71;96873.13;5101054;28;20215;-82